Allison, TX

1:55 PM CDT on October 30, 2014 (GMT -0500)
RAWS CHEYENNE OK US | Change Station
CLOSE
Current Station
Personal Weather Station
Location: Reydon, OK
Elevation: 2352 ft
Nearby Weather Stations

Elev 2352 ft 35.71 °N, 99.90 °W | Updated 57 minutes ago

Clear
Clear
73 °F
Feels Like 75 °F
N
13
Wind Variable Wind from NNE
Gusts 23.0 mph

Today
High -- | Low -- °F
--% Chance of Precip.
Yesterday
High -- | Low -- °F
Precip. -- in
8:00 AM 6:47 PM
Waxing Crescent, 46% visible
Pressure 30.22 in
Visibility 10.0 miles
Clouds Clear
Heat Index 75 °F
Dew Point 32 °F
Humidity 22%
Rainfall 0.00 in
Snow Depth Not available.
UV 5 out of 12
Pollen 5.90 out of 12
Air Quality Not available.
Flu Activity Not available.
METAR KHHF 301835Z AUTO 04010G17KT 10SM CLR 22/00 A3022 RMK AO2 T02201001

More Conditions Fewer Conditions

Pressure 30.22 in
Visibility 10.0 miles
Clouds Clear
Heat Index 75 °F
Dew Point 32 °F
Humidity 22%
Rainfall 0.00 in
Snow Depth Not available.
UV 5 out of 12
Pollen 5.90 out of 12
Air Quality Not available.
Flu Activity Not available.
METAR KHHF 301835Z AUTO 04010G17KT 10SM CLR 22/00 A3022 RMK AO2 T02201001

More Conditions Fewer Conditions

10-Day Weather Forecast

Almanac

Astronomy

Oct. 30, 2014 Rise Set
Actual Time
Civil Twilight
Nautical Twilight
Astronomical Twilight
Moon
Length of Visible Light
Length of Day
Tomorrow will be .
, % of the Moon is Illuminated

Today's Extremes

State Highs State Lows

Community

WunderPhotos

Upload Photos

1,766,425 photos uploaded!

WunderBlogs® & News

Nearby

Air Quality

  Air Quality AQ Index Pollutant
Not available.

Snow Depth

Station Depth Elevation

Earthquake Activity

City Distance Mag. Time & Date
Minimum magnitude displayed is 2.5.

Coastal Water Temperatures

Place Temperature

Nearby Weather Stations